Time;durP1;ratioP1;P1;durP2;ratioP2;P2;SDS_P1;SDS_P2;PMS_P1;PMS_P2;Temp;Humidity;BMP_temperature;BMP_pressure;BME280_temperature;BME280_humidity;BME280_pressure;Samples;Min_cycle;Max_cycle;Signal;HPM_P1;HPM_P2
2021/07/13 00:00:58;;;;;;;6.78;3.78;;;;;;;;;;4972608;28;20533;-68
2021/07/13 00:03:25;;;;;;;5.65;3.05;;;;;;;;;;4973000;28;20055;-69
2021/07/13 00:05:51;;;;;;;4.38;2.60;;;;;;;;;;4972640;28;20466;-68
2021/07/13 00:08:18;;;;;;;3.80;2.65;;;;;;;;;;4972614;28;20078;-68
2021/07/13 00:10:44;;;;;;;6.50;2.90;;;;;;;;;;4972793;28;20109;-68
2021/07/13 00:13:11;;;;;;;3.92;2.03;;;;;;;;;;4972557;28;20133;-68
2021/07/13 00:15:42;;;;;;;6.88;2.33;;;;;;;;;;4972523;28;20047;-68
2021/07/13 00:18:09;;;;;;;3.05;2.17;;;;;;;;;;4983917;28;20092;-68
2021/07/13 00:20:36;;;;;;;3.35;2.05;;;;;;;;;;4991678;28;20524;-68
2021/07/13 00:23:03;;;;;;;4.03;2.45;;;;;;;;;;4992177;28;20047;-68
2021/07/13 00:25:33;;;;;;;3.75;2.13;;;;;;;;;;4974501;28;20095;-67
2021/07/13 00:27:59;;;;;;;5.07;2.33;;;;;;;;;;4991030;28;20264;-68
2021/07/13 00:30:26;;;;;;;2.47;2.13;;;;;;;;;;4988367;28;20047;-67
2021/07/13 00:32:52;;;;;;;4.55;2.08;;;;;;;;;;4976111;28;20078;-68
2021/07/13 00:35:19;;;;;;;3.80;2.03;;;;;;;;;;4975915;28;20102;-68
2021/07/13 00:37:47;;;;;;;6.45;2.08;;;;;;;;;;4976029;28;20178;-68
2021/07/13 00:40:16;;;;;;;4.03;2.50;;;;;;;;;;4975998;28;20200;-68
2021/07/13 00:42:46;;;;;;;1.70;1.50;;;;;;;;;;4975863;28;20101;-68
2021/07/13 00:45:13;;;;;;;3.67;1.83;;;;;;;;;;4975662;28;20090;-67
2021/07/13 00:47:40;;;;;;;3.35;1.83;;;;;;;;;;4975877;28;20082;-68
2021/07/13 00:50:08;;;;;;;3.55;1.80;;;;;;;;;;4975819;28;20102;-69
2021/07/13 00:52:35;;;;;;;3.92;1.88;;;;;;;;;;4978039;28;20055;-68
2021/07/13 00:55:01;;;;;;;3.83;1.90;;;;;;;;;;4995164;28;20089;-69
2021/07/13 00:57:28;;;;;;;5.47;2.40;;;;;;;;;;4995193;28;20077;-68
2021/07/13 00:59:54;;;;;;;3.05;1.90;;;;;;;;;;4995030;28;20081;-69
2021/07/13 01:02:21;;;;;;;3.33;2.30;;;;;;;;;;4978313;28;20105;-69
2021/07/13 01:04:53;;;;;;;3.88;2.33;;;;;;;;;;4975459;28;20057;-69
2021/07/13 01:07:41;;;;;;;3.15;1.95;;;;;;;;;;4975705;28;20395;-68
2021/07/13 01:10:28;;;;;;;4.78;2.03;;;;;;;;;;4975311;28;20090;-68
2021/07/13 01:13:04;;;;;;;5.53;2.47;;;;;;;;;;4959636;28;20471;-67
2021/07/13 01:15:35;;;;;;;5.35;2.38;;;;;;;;;;4958334;28;20417;-67
2021/07/13 01:18:07;;;;;;;4.10;2.50;;;;;;;;;;4974373;28;20074;-69
2021/07/13 01:20:51;;;;;;;9.02;3.00;;;;;;;;;;4973847;28;20479;-68
2021/07/13 01:23:31;;;;;;;4.28;2.80;;;;;;;;;;4975343;28;20051;-68
2021/07/13 01:26:23;;;;;;;3.38;2.60;;;;;;;;;;4971318;28;20480;-68
2021/07/13 01:28:56;;;;;;;5.28;2.50;;;;;;;;;;4974156;28;20085;-67
2021/07/13 01:31:22;;;;;;;3.00;2.60;;;;;;;;;;4973767;28;20507;-68
2021/07/13 01:33:51;;;;;;;3.85;2.38;;;;;;;;;;4973896;28;20058;-68
2021/07/13 01:36:26;;;;;;;3.83;2.33;;;;;;;;;;4973712;28;20086;-68
2021/07/13 01:38:53;;;;;;;4.78;2.30;;;;;;;;;;4973921;28;20078;-68
2021/07/13 01:41:23;;;;;;;2.88;2.58;;;;;;;;;;4972936;28;20046;-67
2021/07/13 01:43:50;;;;;;;5.10;2.60;;;;;;;;;;4973665;28;20050;-67
2021/07/13 01:46:17;;;;;;;3.70;2.50;;;;;;;;;;4974724;28;20130;-68
2021/07/13 01:48:45;;;;;;;3.72;3.17;;;;;;;;;;4973718;28;20058;-67
2021/07/13 01:51:11;;;;;;;2.75;2.42;;;;;;;;;;4973611;28;20046;-68
2021/07/13 01:53:38;;;;;;;4.25;2.50;;;;;;;;;;4973371;28;20090;-69
2021/07/13 01:56:06;;;;;;;3.17;2.63;;;;;;;;;;4973702;28;20086;-68
2021/07/13 01:58:32;;;;;;;3.35;2.60;;;;;;;;;;4973455;28;20465;-68
2021/07/13 02:01:04;;;;;;;4.72;3.45;;;;;;;;;;4973339;28;20063;-68
2021/07/13 02:03:31;;;;;;;4.97;3.03;;;;;;;;;;4974442;28;20062;-68
2021/07/13 02:05:57;;;;;;;3.17;2.80;;;;;;;;;;4973400;28;20130;-68
2021/07/13 02:08:24;;;;;;;3.90;3.35;;;;;;;;;;4974251;28;20560;-67
2021/07/13 02:10:51;;;;;;;6.32;3.65;;;;;;;;;;4973416;28;20086;-68
2021/07/13 02:13:18;;;;;;;4.28;3.22;;;;;;;;;;4973343;28;20093;-68
2021/07/13 02:15:45;;;;;;;7.55;3.78;;;;;;;;;;4974536;28;20050;-68
2021/07/13 02:18:13;;;;;;;4.30;3.00;;;;;;;;;;4974297;28;20086;-68
2021/07/13 02:20:39;;;;;;;5.45;3.05;;;;;;;;;;4973923;28;20097;-68
2021/07/13 02:23:06;;;;;;;5.53;3.08;;;;;;;;;;4973974;28;20101;-68
2021/07/13 02:25:33;;;;;;;5.22;3.03;;;;;;;;;;4973889;28;20505;-68
2021/07/13 02:28:09;;;;;;;4.85;2.72;;;;;;;;;;4973974;28;20093;-68
2021/07/13 02:30:36;;;;;;;6.22;2.95;;;;;;;;;;4972643;28;20141;-68
2021/07/13 02:33:07;;;;;;;3.45;2.80;;;;;;;;;;4972494;28;20145;-68
2021/07/13 02:35:39;;;;;;;6.80;2.70;;;;;;;;;;4978509;28;20086;-68
2021/07/13 02:38:10;;;;;;;3.33;2.33;;;;;;;;;;4972479;28;20089;-68
2021/07/13 02:40:37;;;;;;;2.92;2.20;;;;;;;;;;4988097;28;20086;-68
2021/07/13 02:43:04;;;;;;;3.88;2.05;;;;;;;;;;4972427;28;20518;-68
2021/07/13 02:45:31;;;;;;;3.50;1.80;;;;;;;;;;4988438;28;20510;-68
2021/07/13 02:47:57;;;;;;;5.38;2.42;;;;;;;;;;4972469;28;20047;-68
2021/07/13 02:50:24;;;;;;;3.47;1.92;;;;;;;;;;4975467;28;20190;-68
2021/07/13 02:52:52;;;;;;;5.03;1.95;;;;;;;;;;4975524;28;20082;-68
2021/07/13 02:55:20;;;;;;;4.07;1.98;;;;;;;;;;4991597;28;20077;-69
2021/07/13 02:57:47;;;;;;;5.18;2.08;;;;;;;;;;4991817;28;20074;-68
2021/07/13 03:00:15;;;;;;;4.60;2.35;;;;;;;;;;4991599;28;20129;-68
2021/07/13 03:02:42;;;;;;;6.80;2.58;;;;;;;;;;4991387;28;20078;-68
2021/07/13 03:05:11;;;;;;;5.85;3.13;;;;;;;;;;4972153;28;20085;-68
2021/07/13 03:07:38;;;;;;;7.57;2.55;;;;;;;;;;4956160;28;20510;-68
2021/07/13 03:10:05;;;;;;;4.75;2.30;;;;;;;;;;4955816;28;20093;-68
2021/07/13 03:12:31;;;;;;;3.08;2.15;;;;;;;;;;4971790;28;20090;-68
2021/07/13 03:14:58;;;;;;;4.63;2.17;;;;;;;;;;4955971;28;20097;-68
2021/07/13 03:17:25;;;;;;;3.55;2.33;;;;;;;;;;4971745;28;20093;-68
2021/07/13 03:19:52;;;;;;;4.10;2.80;;;;;;;;;;4956012;28;20065;-68
2021/07/13 03:22:21;;;;;;;4.45;2.90;;;;;;;;;;4955646;28;20086;-68
2021/07/13 03:24:48;;;;;;;7.18;3.42;;;;;;;;;;4973144;28;20078;-68
2021/07/13 03:27:15;;;;;;;5.53;2.75;;;;;;;;;;4971873;28;20075;-68
2021/07/13 03:29:42;;;;;;;5.57;3.17;;;;;;;;;;4972962;28;20093;-66
2021/07/13 03:32:08;;;;;;;5.78;3.90;;;;;;;;;;4971530;28;20047;-66
2021/07/13 03:34:35;;;;;;;6.88;2.95;;;;;;;;;;4955820;28;20125;-66
2021/07/13 03:37:02;;;;;;;6.55;3.35;;;;;;;;;;4972882;28;20051;-66
2021/07/13 03:39:29;;;;;;;7.45;3.40;;;;;;;;;;4971641;28;20055;-66
2021/07/13 03:41:55;;;;;;;5.20;3.13;;;;;;;;;;4955339;28;20494;-66
2021/07/13 03:44:23;;;;;;;7.22;3.53;;;;;;;;;;4971606;28;20051;-66
2021/07/13 03:46:53;;;;;;;5.68;3.53;;;;;;;;;;4973158;28;20490;-65
2021/07/13 03:49:22;;;;;;;5.72;3.65;;;;;;;;;;4975507;28;20050;-65
2021/07/13 03:51:51;;;;;;;6.82;4.07;;;;;;;;;;4990714;28;20054;-65
2021/07/13 03:54:20;;;;;;;5.95;4.55;;;;;;;;;;4992139;28;20133;-65
2021/07/13 03:56:48;;;;;;;8.48;4.95;;;;;;;;;;4992519;28;20050;-65
2021/07/13 03:59:14;;;;;;;8.13;5.60;;;;;;;;;;4992134;28;20073;-65
2021/07/13 04:01:41;;;;;;;8.52;6.63;;;;;;;;;;4990436;28;20473;-65
2021/07/13 04:04:08;;;;;;;7.80;5.70;;;;;;;;;;4992046;28;20054;-65
2021/07/13 04:06:35;;;;;;;7.93;6.13;;;;;;;;;;4995074;28;20047;-65
2021/07/13 04:09:04;;;;;;;7.05;5.70;;;;;;;;;;4998481;28;20050;-65
2021/07/13 04:11:31;;;;;;;12.88;6.20;;;;;;;;;;4994824;28;20058;-65
2021/07/13 04:14:08;;;;;;;7.85;5.40;;;;;;;;;;4976345;28;20050;-68
2021/07/13 04:16:47;;;;;;;9.55;5.13;;;;;;;;;;4990054;28;20125;-67
2021/07/13 04:19:26;;;;;;;8.55;4.75;;;;;;;;;;4997722;28;20054;-66
2021/07/13 04:22:01;;;;;;;6.90;4.63;;;;;;;;;;4997188;28;20058;-67
2021/07/13 04:24:28;;;;;;;5.40;4.15;;;;;;;;;;4996203;28;20077;-65
2021/07/13 04:26:55;;;;;;;9.10;4.30;;;;;;;;;;4996362;28;20057;-65
2021/07/13 04:29:22;;;;;;;5.40;4.10;;;;;;;;;;4996278;28;20113;-65
2021/07/13 04:31:48;;;;;;;6.38;3.90;;;;;;;;;;4996137;28;20050;-65
2021/07/13 04:34:16;;;;;;;4.95;3.90;;;;;;;;;;4995676;28;20520;-65
2021/07/13 04:37:01;;;;;;;6.18;4.03;;;;;;;;;;4996037;28;20044;-65
2021/07/13 04:39:27;;;;;;;5.10;3.15;;;;;;;;;;4995927;28;20050;-65
2021/07/13 04:41:54;;;;;;;5.05;3.22;;;;;;;;;;4996569;28;20088;-65
2021/07/13 04:44:21;;;;;;;4.45;3.20;;;;;;;;;;4998227;28;20081;-65
2021/07/13 04:46:47;;;;;;;3.75;2.45;;;;;;;;;;4997262;28;20050;-65
2021/07/13 04:49:14;;;;;;;3.80;2.35;;;;;;;;;;4997221;28;20054;-65
2021/07/13 04:51:45;;;;;;;6.63;2.40;;;;;;;;;;4996018;28;20089;-65
2021/07/13 04:54:12;;;;;;;5.00;2.20;;;;;;;;;;4996970;28;20056;-65
2021/07/13 04:56:38;;;;;;;3.55;2.40;;;;;;;;;;4997559;28;20050;-65
2021/07/13 04:59:05;;;;;;;4.70;2.55;;;;;;;;;;4997563;28;20050;-64
2021/07/13 05:01:32;;;;;;;4.30;2.75;;;;;;;;;;4997835;28;20082;-65
2021/07/13 05:03:58;;;;;;;4.85;2.85;;;;;;;;;;4998555;28;20573;-65
2021/07/13 05:06:25;;;;;;;5.13;2.72;;;;;;;;;;4987485;28;20137;-65
2021/07/13 05:08:52;;;;;;;4.00;2.60;;;;;;;;;;4980398;28;20070;-67
2021/07/13 05:11:18;;;;;;;3.92;2.88;;;;;;;;;;4982357;28;20093;-65
2021/07/13 05:13:45;;;;;;;3.88;2.65;;;;;;;;;;4980503;28;20074;-65
2021/07/13 05:16:11;;;;;;;5.72;2.80;;;;;;;;;;4978509;28;20051;-65
2021/07/13 05:18:38;;;;;;;4.15;3.30;;;;;;;;;;4982920;28;20052;-65
2021/07/13 05:21:05;;;;;;;3.90;2.50;;;;;;;;;;4998657;28;20069;-65
2021/07/13 05:23:33;;;;;;;4.10;3.00;;;;;;;;;;4998978;28;20097;-65
2021/07/13 05:25:59;;;;;;;5.68;2.55;;;;;;;;;;4999092;28;20050;-65
2021/07/13 05:28:26;;;;;;;4.78;2.92;;;;;;;;;;4998769;28;20092;-65
2021/07/13 05:30:52;;;;;;;3.22;2.80;;;;;;;;;;4997393;28;20065;-65
2021/07/13 05:33:19;;;;;;;3.10;2.67;;;;;;;;;;4989104;28;20117;-65
2021/07/13 05:35:46;;;;;;;3.90;2.40;;;;;;;;;;4982861;28;20051;-65
2021/07/13 05:38:12;;;;;;;4.07;2.50;;;;;;;;;;4979466;28;20098;-64
2021/07/13 05:40:43;;;;;;;2.95;2.33;;;;;;;;;;4979605;28;20557;-64
2021/07/13 05:43:10;;;;;;;4.53;3.28;;;;;;;;;;4979780;28;20070;-65
2021/07/13 05:45:37;;;;;;;4.93;3.15;;;;;;;;;;4962092;28;20074;-65
2021/07/13 05:48:04;;;;;;;4.53;2.58;;;;;;;;;;4994778;28;20078;-64
2021/07/13 05:50:30;;;;;;;5.38;2.95;;;;;;;;;;4999356;28;20057;-65
2021/07/13 05:52:57;;;;;;;4.57;2.78;;;;;;;;;;4998354;28;20060;-64
2021/07/13 05:55:24;;;;;;;5.20;3.80;;;;;;;;;;4997499;28;20047;-64
2021/07/13 05:57:50;;;;;;;6.68;4.55;;;;;;;;;;4997158;28;20074;-65
2021/07/13 06:00:17;;;;;;;5.32;3.63;;;;;;;;;;4993510;28;20501;-65
2021/07/13 06:02:44;;;;;;;5.70;3.50;;;;;;;;;;4974438;28;20078;-65
2021/07/13 06:05:11;;;;;;;5.80;3.35;;;;;;;;;;4974582;28;20086;-65
2021/07/13 06:07:47;;;;;;;5.40;3.60;;;;;;;;;;4974275;28;20101;-66
2021/07/13 06:10:16;;;;;;;3.70;3.08;;;;;;;;;;4972150;28;20062;-66
2021/07/13 06:12:43;;;;;;;4.65;3.33;;;;;;;;;;4972422;28;20055;-66
2021/07/13 06:15:10;;;;;;;5.00;3.53;;;;;;;;;;4979072;28;20057;-67
2021/07/13 06:17:39;;;;;;;5.82;4.13;;;;;;;;;;4991959;28;20051;-66
2021/07/13 06:20:06;;;;;;;7.57;3.90;;;;;;;;;;4991709;28;20142;-66
2021/07/13 06:22:33;;;;;;;5.15;3.58;;;;;;;;;;4990956;28;20090;-66
2021/07/13 06:24:59;;;;;;;4.82;3.60;;;;;;;;;;4991444;28;20050;-66
2021/07/13 06:27:26;;;;;;;8.45;5.82;;;;;;;;;;4990758;28;20100;-67
2021/07/13 06:29:52;;;;;;;6.20;4.90;;;;;;;;;;4991495;28;20533;-67
2021/07/13 06:32:19;;;;;;;8.13;5.15;;;;;;;;;;4991744;28;20085;-67
2021/07/13 06:34:45;;;;;;;7.57;5.78;;;;;;;;;;4990812;28;20100;-66
2021/07/13 06:37:12;;;;;;;6.55;5.28;;;;;;;;;;4991426;28;20050;-67
2021/07/13 06:39:39;;;;;;;7.43;5.38;;;;;;;;;;4991196;28;20525;-67
2021/07/13 06:42:10;;;;;;;11.50;6.07;;;;;;;;;;4988983;28;20525;-67
2021/07/13 06:44:36;;;;;;;7.45;5.97;;;;;;;;;;4971977;28;20145;-67
2021/07/13 06:47:03;;;;;;;8.60;6.43;;;;;;;;;;4971770;28;20063;-67
2021/07/13 06:49:30;;;;;;;7.15;6.45;;;;;;;;;;4971545;28;20051;-67
2021/07/13 06:51:56;;;;;;;8.23;6.95;;;;;;;;;;4971632;28;20090;-66
2021/07/13 06:54:27;;;;;;;6.38;5.75;;;;;;;;;;4971016;28;20073;-67
2021/07/13 06:56:53;;;;;;;7.90;6.03;;;;;;;;;;4974151;28;20461;-67
2021/07/13 06:59:20;;;;;;;6.30;5.22;;;;;;;;;;4982911;28;20480;-67
2021/07/13 07:01:47;;;;;;;7.68;4.65;;;;;;;;;;4990045;28;20100;-67
2021/07/13 07:04:14;;;;;;;5.72;4.35;;;;;;;;;;4990833;28;20078;-67
2021/07/13 07:06:42;;;;;;;4.95;3.95;;;;;;;;;;4990772;28;20061;-66
2021/07/13 07:09:09;;;;;;;5.60;4.32;;;;;;;;;;4988642;28;20517;-66
2021/07/13 07:11:35;;;;;;;4.38;3.97;;;;;;;;;;4971337;28;20150;-66
2021/07/13 07:14:02;;;;;;;5.10;4.20;;;;;;;;;;4970848;28;20105;-66
2021/07/13 07:16:29;;;;;;;6.05;3.97;;;;;;;;;;4970967;28;20066;-67
2021/07/13 07:18:55;;;;;;;6.80;3.90;;;;;;;;;;4971215;28;20051;-66
2021/07/13 07:21:22;;;;;;;5.82;4.20;;;;;;;;;;4970548;28;20089;-66
2021/07/13 07:23:48;;;;;;;8.13;3.65;;;;;;;;;;4971412;28;20085;-66
2021/07/13 07:26:15;;;;;;;5.03;3.65;;;;;;;;;;4971043;28;20082;-67
2021/07/13 07:28:41;;;;;;;6.88;4.20;;;;;;;;;;4970606;28;20079;-67
2021/07/13 07:31:09;;;;;;;4.97;3.85;;;;;;;;;;4970792;28;20086;-67
2021/07/13 07:33:36;;;;;;;4.70;4.18;;;;;;;;;;4970915;28;20065;-66
2021/07/13 07:36:03;;;;;;;5.10;4.00;;;;;;;;;;4971417;28;20046;-66
2021/07/13 07:38:30;;;;;;;8.00;4.10;;;;;;;;;;4970801;28;20093;-66
2021/07/13 07:40:56;;;;;;;5.75;3.78;;;;;;;;;;4966664;28;20055;-71
2021/07/13 07:43:23;;;;;;;7.30;3.80;;;;;;;;;;4982396;28;20050;-69
2021/07/13 07:45:49;;;;;;;8.00;4.00;;;;;;;;;;4981481;28;20051;-69
2021/07/13 07:48:16;;;;;;;6.47;4.32;;;;;;;;;;4976261;28;20478;-70
2021/07/13 07:50:43;;;;;;;6.35;4.60;;;;;;;;;;4978609;28;20086;-70
2021/07/13 07:53:09;;;;;;;6.35;4.50;;;;;;;;;;4978531;28;20515;-69
2021/07/13 07:55:36;;;;;;;6.70;4.63;;;;;;;;;;4979754;28;20137;-70
2021/07/13 07:58:02;;;;;;;7.03;3.95;;;;;;;;;;4974390;28;20104;-71
2021/07/13 08:00:29;;;;;;;7.00;4.03;;;;;;;;;;4977562;28;20073;-69
2021/07/13 08:02:56;;;;;;;6.13;3.30;;;;;;;;;;4979919;28;20446;-69
2021/07/13 08:05:26;;;;;;;5.82;3.15;;;;;;;;;;4977704;28;20074;-68
2021/07/13 08:07:53;;;;;;;7.38;4.40;;;;;;;;;;4974565;28;20129;-71
2021/07/13 08:10:19;;;;;;;6.15;3.95;;;;;;;;;;4977697;28;20081;-72
2021/07/13 08:12:46;;;;;;;6.10;3.85;;;;;;;;;;4977143;28;20085;-69
2021/07/13 08:15:13;;;;;;;3.83;3.13;;;;;;;;;;4979959;28;20051;-74
2021/07/13 08:17:41;;;;;;;5.68;3.55;;;;;;;;;;4950093;28;20133;-70
2021/07/13 08:20:12;;;;;;;6.50;4.07;;;;;;;;;;4976219;28;20462;-71
2021/07/13 08:22:43;;;;;;;6.53;4.30;;;;;;;;;;4980011;28;20105;-70
2021/07/13 08:25:10;;;;;;;6.80;3.83;;;;;;;;;;4976266;28;20110;-74
2021/07/13 08:27:36;;;;;;;6.88;4.45;;;;;;;;;;4979808;28;20097;-70
2021/07/13 08:30:05;;;;;;;7.70;5.55;;;;;;;;;;4981928;28;20105;-72
2021/07/13 08:32:31;;;;;;;7.93;5.68;;;;;;;;;;4977149;28;20046;-67
2021/07/13 08:34:58;;;;;;;6.07;5.13;;;;;;;;;;4977161;28;20141;-70
2021/07/13 08:37:27;;;;;;;6.30;4.57;;;;;;;;;;4980536;28;20116;-67
2021/07/13 08:39:53;;;;;;;6.03;4.15;;;;;;;;;;4978484;28;20081;-68
2021/07/13 08:42:20;;;;;;;10.63;4.43;;;;;;;;;;4977634;28;20065;-68
2021/07/13 08:44:46;;;;;;;5.97;4.50;;;;;;;;;;4980704;28;20077;-67
2021/07/13 08:47:16;;;;;;;6.90;5.07;;;;;;;;;;4977777;28;20082;-66
2021/07/13 08:49:46;;;;;;;5.57;4.45;;;;;;;;;;4981376;28;20078;-67
2021/07/13 08:52:13;;;;;;;5.43;4.68;;;;;;;;;;4980511;28;20071;-69
2021/07/13 08:54:39;;;;;;;7.53;4.90;;;;;;;;;;4982478;28;20084;-67
2021/07/13 08:57:09;;;;;;;6.13;5.20;;;;;;;;;;4980717;28;20137;-68
2021/07/13 08:59:35;;;;;;;9.18;6.47;;;;;;;;;;4980751;28;20085;-67
2021/07/13 09:02:03;;;;;;;8.05;5.45;;;;;;;;;;4982691;28;20506;-68
2021/07/13 09:04:34;;;;;;;6.57;5.25;;;;;;;;;;4980501;28;20046;-75
2021/07/13 09:07:06;;;;;;;3.00;2.15;;;;;;;;;;4982572;28;20074;-74
2021/07/13 09:09:35;;;;;;;3.08;1.50;;;;;;;;;;4981837;28;20078;-73
2021/07/13 09:12:22;;;;;;;2.50;1.65;;;;;;;;;;4983199;28;20081;-70
2021/07/13 09:15:00;;;;;;;1.48;1.20;;;;;;;;;;4984875;28;20053;-70
2021/07/13 09:17:43;;;;;;;0.60;0.60;;;;;;;;;;4979640;28;20078;-70
2021/07/13 09:20:22;;;;;;;1.35;0.80;;;;;;;;;;4986463;28;20050;-72
2021/07/13 09:22:59;;;;;;;0.95;0.90;;;;;;;;;;4983352;28;20104;-70
2021/07/13 09:25:29;;;;;;;0.77;0.75;;;;;;;;;;4985928;28;20057;-72
2021/07/13 09:28:15;;;;;;;1.20;0.40;;;;;;;;;;4983394;28;20075;-70
2021/07/13 09:30:44;;;;;;;1.15;0.60;;;;;;;;;;4981596;28;20506;-66
2021/07/13 09:33:11;;;;;;;1.02;0.60;;;;;;;;;;4982268;28;20078;-65
2021/07/13 09:36:11;;;;;;;0.45;0.45;;;;;;;;;;4981018;28;20465;-67
2021/07/13 09:38:44;;;;;;;0.85;0.43;;;;;;;;;;4979532;28;20061;-69
2021/07/13 09:41:12;;;;;;;1.60;0.28;;;;;;;;;;4979429;28;20054;-66
2021/07/13 09:43:47;;;;;;;0.88;0.28;;;;;;;;;;4982093;28;20406;-68
2021/07/13 09:46:23;;;;;;;1.45;0.28;;;;;;;;;;4982342;28;20112;-66
2021/07/13 09:49:09;;;;;;;0.68;0.13;;;;;;;;;;4983064;28;20043;-67
2021/07/13 09:51:36;;;;;;;0.40;0.30;;;;;;;;;;4984994;28;20106;-66
2021/07/13 09:54:28;;;;;;;2.30;0.40;;;;;;;;;;4981457;28;20055;-68
2021/07/13 09:56:55;;;;;;;4.95;0.40;;;;;;;;;;4982203;28;20258;-71
2021/07/13 09:59:22;;;;;;;0.73;0.20;;;;;;;;;;4980567;28;20654;-70
2021/07/13 10:01:49;;;;;;;0.10;0.10;;;;;;;;;;4981681;28;20137;-69
2021/07/13 10:04:15;;;;;;;3.15;0.30;;;;;;;;;;4976967;28;20509;-68
2021/07/13 10:06:42;;;;;;;1.17;0.25;;;;;;;;;;4981767;28;20426;-70
2021/07/13 10:09:11;;;;;;;0.22;0.10;;;;;;;;;;4982032;28;20133;-66
2021/07/13 10:11:39;;;;;;;0.30;0.30;;;;;;;;;;4954934;28;20047;-66
2021/07/13 10:14:12;;;;;;;1.75;0.47;;;;;;;;;;4987059;28;20133;-68
2021/07/13 10:16:38;;;;;;;3.00;0.40;;;;;;;;;;4981568;28;20073;-68
2021/07/13 10:19:06;;;;;;;2.03;0.32;;;;;;;;;;4978639;28;20046;-66
2021/07/13 10:21:35;;;;;;;2.72;0.40;;;;;;;;;;4976256;28;20047;-66
2021/07/13 10:24:02;;;;;;;0.85;0.30;;;;;;;;;;4976217;28;20051;-68
2021/07/13 10:26:45;;;;;;;0.35;0.20;;;;;;;;;;4978267;28;20058;-66
2021/07/13 10:29:31;;;;;;;1.13;0.30;;;;;;;;;;4978710;28;20255;-67
2021/07/13 10:31:59;;;;;;;0.73;0.20;;;;;;;;;;4977279;28;20474;-67
2021/07/13 10:34:50;;;;;;;0.57;0.30;;;;;;;;;;4980140;28;20085;-67
2021/07/13 10:37:42;;;;;;;0.30;0.30;;;;;;;;;;4976190;28;20050;-67
2021/07/13 10:40:10;;;;;;;1.10;0.32;;;;;;;;;;4978630;28;20153;-67
2021/07/13 10:42:39;;;;;;;0.40;0.20;;;;;;;;;;4976663;28;20058;-66
2021/07/13 10:45:21;;;;;;;1.33;0.32;;;;;;;;;;4977970;28;20485;-68
2021/07/13 10:48:12;;;;;;;0.80;0.22;;;;;;;;;;4979600;28;20141;-67
2021/07/13 10:50:43;;;;;;;0.25;0.13;;;;;;;;;;4980063;28;20054;-67
2021/07/13 10:53:20;;;;;;;0.57;0.30;;;;;;;;;;4978240;28;20042;-70
2021/07/13 10:55:48;;;;;;;0.10;0.10;;;;;;;;;;4977980;28;20133;-68
2021/07/13 10:58:15;;;;;;;0.68;0.30;;;;;;;;;;4984617;28;20453;-70
2021/07/13 11:00:47;;;;;;;1.48;0.40;;;;;;;;;;4981879;28;20053;-71
2021/07/13 11:03:29;;;;;;;0.22;0.10;;;;;;;;;;4977337;28;20050;-73
2021/07/13 11:06:01;;;;;;;0.55;0.55;;;;;;;;;;4978091;28;20089;-68
2021/07/13 11:08:52;;;;;;;1.05;0.50;;;;;;;;;;4975643;28;20074;-70
2021/07/13 11:11:22;;;;;;;2.15;0.73;;;;;;;;;;4979843;28;20050;-68
2021/07/13 11:14:02;;;;;;;1.55;0.50;;;;;;;;;;4982693;28;20494;-70
2021/07/13 11:16:33;;;;;;;1.15;0.40;;;;;;;;;;4978466;28;20520;-70
2021/07/13 11:19:01;;;;;;;0.75;0.25;;;;;;;;;;4978803;28;20521;-70
2021/07/13 11:21:28;;;;;;;0.32;0.20;;;;;;;;;;4982748;28;20109;-70
2021/07/13 11:24:04;;;;;;;0.88;0.28;;;;;;;;;;4978219;28;20129;-67
2021/07/13 11:26:33;;;;;;;0.75;0.32;;;;;;;;;;4980912;28;20457;-67
2021/07/13 11:29:02;;;;;;;0.70;0.40;;;;;;;;;;4980347;28;20090;-67
2021/07/13 11:31:29;;;;;;;0.95;0.40;;;;;;;;;;4980425;28;20120;-67
2021/07/13 11:34:00;;;;;;;0.85;0.40;;;;;;;;;;4984688;28;20058;-67
2021/07/13 11:36:27;;;;;;;0.45;0.30;;;;;;;;;;4981835;28;20082;-67
2021/07/13 11:38:54;;;;;;;0.80;0.40;;;;;;;;;;4980107;28;20098;-67
2021/07/13 11:41:21;;;;;;;0.70;0.40;;;;;;;;;;4984157;28;20042;-67
2021/07/13 11:43:56;;;;;;;0.88;0.40;;;;;;;;;;4979182;28;20141;-68
2021/07/13 11:46:24;;;;;;;0.63;0.22;;;;;;;;;;4977809;28;20055;-65
2021/07/13 11:49:01;;;;;;;4.18;0.38;;;;;;;;;;4977404;28;20509;-66
2021/07/13 11:51:49;;;;;;;1.45;0.50;;;;;;;;;;4979494;28;20110;-67
2021/07/13 11:54:17;;;;;;;0.70;0.30;;;;;;;;;;4975775;28;20089;-67
2021/07/13 11:56:46;;;;;;;2.15;0.40;;;;;;;;;;4977974;28;20130;-70
2021/07/13 11:59:14;;;;;;;1.05;0.30;;;;;;;;;;4978119;28;20081;-65
2021/07/13 12:01:40;;;;;;;2.35;0.35;;;;;;;;;;4975684;28;20110;-65
2021/07/13 12:04:09;;;;;;;2.05;0.38;;;;;;;;;;4977729;28;20057;-65
2021/07/13 12:06:36;;;;;;;2.10;0.65;;;;;;;;;;4981233;28;20497;-67
2021/07/13 12:09:08;;;;;;;2.15;0.60;;;;;;;;;;4979405;28;20046;-65
2021/07/13 12:11:37;;;;;;;1.05;0.40;;;;;;;;;;4979179;28;20077;-70
2021/07/13 12:14:04;;;;;;;0.93;0.30;;;;;;;;;;4978903;28;20121;-69
2021/07/13 12:16:33;;;;;;;0.70;0.50;;;;;;;;;;4980323;28;20078;-67
2021/07/13 12:19:03;;;;;;;1.65;0.50;;;;;;;;;;4978195;28;20047;-69
2021/07/13 12:21:33;;;;;;;1.92;0.50;;;;;;;;;;4982261;28;20085;-68
2021/07/13 12:24:00;;;;;;;0.93;0.40;;;;;;;;;;4979386;28;20102;-68
2021/07/13 12:26:34;;;;;;;0.45;0.40;;;;;;;;;;4979367;28;20513;-68
2021/07/13 12:29:10;;;;;;;1.02;0.40;;;;;;;;;;4981808;28;20051;-67
2021/07/13 12:31:50;;;;;;;1.83;0.65;;;;;;;;;;4982775;28;20086;-68
2021/07/13 12:34:22;;;;;;;3.97;0.40;;;;;;;;;;4982985;28;20472;-69
2021/07/13 12:37:03;;;;;;;2.70;0.88;;;;;;;;;;4982280;28;20054;-68
2021/07/13 12:39:30;;;;;;;0.50;0.40;;;;;;;;;;4981566;28;20047;-68
2021/07/13 12:42:02;;;;;;;1.65;0.85;;;;;;;;;;4982826;28;20085;-68
2021/07/13 12:44:33;;;;;;;0.77;0.43;;;;;;;;;;4985582;28;20055;-70
2021/07/13 12:47:20;;;;;;;3.80;0.40;;;;;;;;;;4980530;28;20054;-70
2021/07/13 12:50:08;;;;;;;1.50;0.40;;;;;;;;;;4985310;28;20472;-71
2021/07/13 12:52:39;;;;;;;0.70;0.30;;;;;;;;;;4983418;28;20469;-70
2021/07/13 12:55:14;;;;;;;0.35;0.25;;;;;;;;;;4979530;28;20092;-70
2021/07/13 12:57:46;;;;;;;1.55;0.50;;;;;;;;;;4984158;28;20082;-71
2021/07/13 13:00:32;;;;;;;0.38;0.20;;;;;;;;;;4980738;28;20085;-70
2021/07/13 13:03:06;;;;;;;0.60;0.50;;;;;;;;;;4982119;28;20061;-69
2021/07/13 13:05:35;;;;;;;0.32;0.30;;;;;;;;;;4979274;28;20054;-70
2021/07/13 13:08:19;;;;;;;0.80;0.50;;;;;;;;;;4983844;28;20097;-70
2021/07/13 13:10:47;;;;;;;0.70;0.40;;;;;;;;;;4967038;28;20418;-70
2021/07/13 13:13:24;;;;;;;0.82;0.40;;;;;;;;;;4982807;28;20089;-70
2021/07/13 13:15:51;;;;;;;0.90;0.50;;;;;;;;;;4987259;28;20046;-70
2021/07/13 13:18:17;;;;;;;1.35;0.50;;;;;;;;;;4979608;28;20114;-71
2021/07/13 13:20:44;;;;;;;1.65;0.43;;;;;;;;;;4981581;28;20055;-70
2021/07/13 13:23:12;;;;;;;0.30;0.30;;;;;;;;;;4982236;28;20082;-71
2021/07/13 13:25:38;;;;;;;0.38;0.38;;;;;;;;;;4984058;28;20092;-70
2021/07/13 13:28:06;;;;;;;0.43;0.38;;;;;;;;;;4984044;28;20469;-70
2021/07/13 13:30:33;;;;;;;0.38;0.28;;;;;;;;;;4980546;28;20042;-70
2021/07/13 13:32:59;;;;;;;0.32;0.30;;;;;;;;;;4980368;28;20801;-70
2021/07/13 13:40:31;;;;;;;0.40;0.40;;;;;;;;;;4980236;28;20109;-70
2021/07/13 13:42:58;;;;;;;1.38;0.43;;;;;;;;;;4979845;28;20047;-70
2021/07/13 13:45:24;;;;;;;0.32;0.32;;;;;;;;;;4982546;28;20085;-71
2021/07/13 13:47:51;;;;;;;0.52;0.40;;;;;;;;;;4982517;28;20043;-70
2021/07/13 13:50:18;;;;;;;1.08;0.45;;;;;;;;;;4981977;28;20077;-71
2021/07/13 13:53:04;;;;;;;1.13;0.40;;;;;;;;;;4980129;28;20046;-70
2021/07/13 13:55:31;;;;;;;1.00;0.47;;;;;;;;;;4982483;28;20070;-71
2021/07/13 13:57:57;;;;;;;1.52;0.32;;;;;;;;;;4980331;28;20051;-70
2021/07/13 14:00:24;;;;;;;0.32;0.20;;;;;;;;;;4980829;28;20046;-70
2021/07/13 14:02:52;;;;;;;2.10;0.40;;;;;;;;;;4980097;28;20086;-71
2021/07/13 14:05:19;;;;;;;1.92;0.50;;;;;;;;;;4980284;28;20058;-69
2021/07/13 14:07:46;;;;;;;1.98;0.60;;;;;;;;;;4981099;28;20084;-69
2021/07/13 14:10:13;;;;;;;1.33;0.40;;;;;;;;;;4979743;28;20167;-69
2021/07/13 14:12:40;;;;;;;0.60;0.50;;;;;;;;;;4981317;28;20058;-68
2021/07/13 14:15:09;;;;;;;3.28;0.85;;;;;;;;;;4980815;28;20096;-70
2021/07/13 14:17:37;;;;;;;1.58;0.50;;;;;;;;;;4986787;28;20439;-70
2021/07/13 14:20:06;;;;;;;1.27;0.32;;;;;;;;;;4978361;28;20087;-71
2021/07/13 14:22:34;;;;;;;2.17;0.40;;;;;;;;;;4979675;28;20134;-70
2021/07/13 14:25:01;;;;;;;2.92;0.63;;;;;;;;;;4978179;28;20178;-71
2021/07/13 14:27:27;;;;;;;1.00;0.30;;;;;;;;;;4981169;28;20056;-72
2021/07/13 14:29:54;;;;;;;0.40;0.40;;;;;;;;;;4979199;28;20514;-68
2021/07/13 14:32:22;;;;;;;0.30;0.30;;;;;;;;;;4980267;28;20054;-69
2021/07/13 14:34:49;;;;;;;0.30;0.22;;;;;;;;;;4983650;28;20481;-69
2021/07/13 14:37:16;;;;;;;2.75;0.60;;;;;;;;;;4981703;28;20050;-69
2021/07/13 14:39:43;;;;;;;0.73;0.40;;;;;;;;;;4980677;28;20043;-69
2021/07/13 14:42:10;;;;;;;2.13;0.75;;;;;;;;;;4978913;28;20191;-68
2021/07/13 14:44:37;;;;;;;0.30;0.30;;;;;;;;;;4977352;28;20050;-71
2021/07/13 14:47:04;;;;;;;3.50;0.60;;;;;;;;;;4978643;28;20097;-71
2021/07/13 14:49:32;;;;;;;0.50;0.40;;;;;;;;;;4984822;28;20039;-71
2021/07/13 14:51:59;;;;;;;1.27;0.40;;;;;;;;;;4981351;28;20141;-70
2021/07/13 14:54:26;;;;;;;0.55;0.50;;;;;;;;;;4982614;28;20055;-70
2021/07/13 14:56:53;;;;;;;0.70;0.52;;;;;;;;;;4979851;28;20047;-67
2021/07/13 14:59:20;;;;;;;3.05;0.43;;;;;;;;;;4980470;28;20494;-70
2021/07/13 15:01:47;;;;;;;1.20;0.43;;;;;;;;;;4979988;28;20135;-70